createdAt,value
2023-04-28T00:00:06.367Z,13.66
2023-04-28T00:02:34.346Z,13.55
2023-04-28T00:05:02.178Z,13.48
2023-04-28T00:07:29.618Z,13.58
2023-04-28T00:09:57.328Z,13.61
2023-04-28T00:12:24.767Z,13.57
2023-04-28T00:14:52.126Z,13.53
2023-04-28T00:17:19.430Z,13.41
2023-04-28T00:19:46.780Z,13.48
2023-04-28T00:22:15.208Z,13.50
2023-04-28T00:24:42.553Z,13.47
2023-04-28T00:27:10.412Z,13.47
2023-04-28T00:29:37.929Z,13.30
2023-04-28T00:32:06.700Z,13.18
2023-04-28T00:34:37.335Z,13.23
2023-04-28T00:37:04.873Z,13.25
2023-04-28T00:39:32.214Z,13.29
2023-04-28T00:41:59.624Z,13.33
2023-04-28T00:44:28.884Z,13.41
2023-04-28T00:46:57.698Z,13.37
2023-04-28T00:49:26.041Z,13.40
2023-04-28T00:51:53.535Z,13.35
2023-04-28T00:54:21.085Z,13.18
2023-04-28T00:56:49.030Z,13.26
2023-04-28T00:59:16.533Z,13.19
2023-04-28T01:01:44.326Z,13.09
2023-04-28T01:04:12.109Z,13.11
2023-04-28T01:06:43.966Z,13.10
2023-04-28T01:09:11.320Z,13.02
2023-04-28T01:11:38.933Z,13.11
2023-04-28T01:14:11.344Z,13.00
2023-04-28T01:16:41.449Z,12.91
2023-04-28T01:19:16.970Z,12.76
2023-04-28T01:21:44.747Z,12.86
2023-04-28T01:24:22.373Z,12.98
2023-04-28T01:26:50.903Z,12.82
2023-04-28T01:29:18.278Z,12.80
2023-04-28T01:31:45.783Z,12.74
2023-04-28T01:34:13.282Z,12.86
2023-04-28T01:36:42.854Z,12.90
2023-04-28T01:39:19.885Z,12.81
2023-04-28T01:41:47.226Z,12.92
2023-04-28T01:44:14.890Z,12.91
2023-04-28T01:46:42.559Z,12.88
2023-04-28T01:49:09.935Z,12.80
2023-04-28T01:51:37.387Z,12.83
2023-04-28T01:54:05.584Z,12.85
2023-04-28T01:56:32.944Z,12.93
2023-04-28T01:59:00.840Z,12.93
2023-04-28T02:01:28.353Z,12.87
2023-04-28T02:03:56.384Z,12.91
2023-04-28T02:06:24.615Z,12.79
2023-04-28T02:08:52.006Z,12.42
2023-04-28T02:11:19.389Z,12.16
2023-04-28T02:13:47.128Z,12.03
2023-04-28T02:16:14.581Z,12.22
2023-04-28T02:18:43.144Z,12.09
2023-04-28T02:21:16.667Z,12.15
2023-04-28T02:23:46.064Z,12.23
2023-04-28T02:26:13.516Z,12.26
2023-04-28T02:28:42.328Z,12.36
2023-04-28T02:31:11.557Z,12.23
2023-04-28T02:33:39.048Z,12.23
2023-04-28T02:36:07.628Z,12.03
2023-04-28T02:38:35.253Z,12.06
2023-04-28T02:41:05.105Z,12.02
2023-04-28T02:43:32.692Z,11.91
2023-04-28T02:46:00.444Z,11.87
2023-04-28T02:48:28.019Z,11.67
2023-04-28T02:50:55.684Z,11.50
2023-04-28T02:53:23.362Z,11.59
2023-04-28T02:55:51.090Z,11.47
2023-04-28T02:58:18.970Z,11.48
2023-04-28T03:00:47.991Z,11.65
2023-04-28T03:03:16.397Z,11.63
2023-04-28T03:05:44.098Z,11.40
2023-04-28T03:08:11.612Z,11.50
2023-04-28T03:10:39.016Z,11.51
2023-04-28T03:13:06.419Z,11.45
2023-04-28T03:15:33.893Z,11.26
2023-04-28T03:18:01.566Z,11.34
2023-04-28T03:20:29.649Z,11.44
2023-04-28T03:22:57.290Z,11.44
2023-04-28T03:25:24.747Z,11.60
2023-04-28T03:27:52.747Z,11.43
2023-04-28T03:30:21.190Z,11.39
2023-04-28T03:32:48.566Z,11.29
2023-04-28T03:35:16.588Z,11.22
2023-04-28T03:37:44.705Z,11.25
2023-04-28T03:40:12.661Z,11.26
2023-04-28T03:43:00.200Z,11.34
2023-04-28T03:45:35.600Z,11.27
2023-04-28T03:48:03.044Z,11.32
2023-04-28T03:50:31.414Z,11.21
2023-04-28T03:52:58.764Z,11.26
2023-04-28T03:55:27.147Z,11.30
2023-04-28T03:57:54.556Z,11.26
2023-04-28T04:00:22.038Z,11.44
2023-04-28T04:02:52.776Z,11.59
2023-04-28T04:05:20.762Z,11.54
2023-04-28T04:07:48.216Z,11.56
2023-04-28T04:10:15.827Z,11.60
2023-04-28T04:12:45.157Z,11.46
2023-04-28T04:15:15.025Z,11.51
2023-04-28T04:17:44.423Z,11.55
2023-04-28T04:20:12.108Z,11.60
2023-04-28T04:22:39.583Z,11.67
2023-04-28T04:25:07.290Z,11.72
2023-04-28T04:27:36.226Z,11.81
2023-04-28T04:30:03.998Z,11.80
2023-04-28T04:32:31.445Z,11.80
2023-04-28T04:34:58.839Z,11.75
2023-04-28T04:37:26.346Z,11.90
2023-04-28T04:40:03.644Z,12.07
2023-04-28T04:42:36.787Z,12.16
2023-04-28T04:45:09.301Z,12.17
2023-04-28T04:47:37.595Z,12.21
2023-04-28T04:50:06.097Z,12.26
2023-04-28T04:52:33.644Z,12.31
2023-04-28T04:55:01.072Z,12.25
2023-04-28T04:57:31.716Z,12.21
2023-04-28T05:00:02.192Z,12.26
2023-04-28T05:02:31.298Z,12.32
2023-04-28T05:05:08.281Z,12.35
2023-04-28T05:07:41.062Z,12.34
2023-04-28T05:10:11.503Z,12.35
2023-04-28T05:12:39.124Z,12.39
2023-04-28T05:15:08.109Z,12.41
2023-04-28T05:17:38.953Z,12.46
2023-04-28T05:20:07.181Z,12.54
2023-04-28T05:22:37.571Z,12.66
2023-04-28T05:25:05.360Z,12.78
2023-04-28T05:27:33.744Z,12.80
2023-04-28T05:30:01.087Z,12.98
2023-04-28T05:32:30.348Z,12.99
2023-04-28T05:34:57.705Z,12.96
2023-04-28T05:37:25.147Z,13.16
2023-04-28T05:39:52.655Z,13.18
2023-04-28T05:42:20.044Z,13.30
2023-04-28T05:44:47.384Z,13.43
2023-04-28T05:47:14.837Z,13.56
2023-04-28T05:49:42.253Z,13.58
2023-04-28T05:52:09.752Z,13.52
2023-04-28T05:54:37.162Z,13.67
2023-04-28T05:57:05.059Z,13.79
2023-04-28T05:59:33.124Z,13.86
2023-04-28T06:02:01.402Z,14.04
2023-04-28T06:04:29.280Z,14.16
2023-04-28T06:06:57.092Z,14.22
2023-04-28T06:09:24.631Z,14.36
2023-04-28T06:11:53.682Z,14.37
2023-04-28T06:14:23.077Z,14.41
2023-04-28T06:16:51.267Z,14.47
2023-04-28T06:19:21.584Z,14.62
2023-04-28T06:21:53.126Z,14.66
2023-04-28T06:24:23.440Z,14.74
2023-04-28T06:26:54.163Z,14.76
2023-04-28T06:29:23.832Z,14.78
2023-04-28T06:31:52.915Z,14.80
2023-04-28T06:34:20.584Z,14.70
2023-04-28T06:36:48.115Z,14.59
2023-04-28T06:39:15.538Z,14.74
2023-04-28T06:41:43.251Z,14.79
2023-04-28T06:44:11.955Z,14.97
2023-04-28T06:46:39.503Z,15.14
2023-04-28T06:49:06.880Z,15.16
2023-04-28T06:51:34.551Z,15.25
2023-04-28T06:54:02.013Z,15.24
2023-04-28T06:56:29.568Z,15.18
2023-04-28T06:58:57.511Z,15.26
2023-04-28T07:01:27.536Z,15.55
2023-04-28T07:03:55.103Z,15.73
2023-04-28T07:06:23.015Z,15.99
2023-04-28T07:08:50.458Z,16.27
2023-04-28T07:11:17.793Z,16.48
2023-04-28T07:13:49.298Z,16.94
2023-04-28T07:16:16.823Z,16.78
2023-04-28T07:18:44.312Z,16.86
2023-04-28T07:21:11.896Z,16.76
2023-04-28T07:23:40.419Z,16.77
2023-04-28T07:26:08.289Z,16.56
2023-04-28T07:28:35.820Z,16.77
2023-04-28T07:31:03.176Z,16.96
2023-04-28T07:33:30.553Z,17.28
2023-04-28T07:35:57.984Z,17.50
2023-04-28T07:38:25.420Z,17.31
2023-04-28T07:40:53.452Z,17.33
2023-04-28T07:43:21.166Z,17.21
2023-04-28T07:45:50.046Z,17.07
2023-04-28T07:48:17.593Z,17.11
2023-04-28T07:50:45.018Z,17.12
2023-04-28T07:53:12.549Z,17.46
2023-04-28T07:55:42.167Z,17.51
2023-04-28T07:58:09.715Z,17.53
2023-04-28T08:00:37.546Z,17.44
2023-04-28T08:03:06.254Z,17.55
2023-04-28T08:05:33.783Z,17.51
2023-04-28T08:08:01.222Z,17.49
2023-04-28T08:10:28.980Z,17.55
2023-04-28T08:12:56.334Z,17.77
2023-04-28T08:15:23.768Z,17.78
2023-04-28T08:17:51.902Z,17.81
2023-04-28T08:20:24.658Z,17.68
2023-04-28T08:22:52.327Z,17.90
2023-04-28T08:25:19.610Z,18.47
2023-04-28T08:27:47.134Z,18.82
2023-04-28T08:30:14.543Z,19.29
2023-04-28T08:32:42.044Z,19.48
2023-04-28T08:35:10.155Z,19.27
2023-04-28T08:37:37.613Z,19.72
2023-04-28T08:40:10.063Z,19.65
2023-04-28T08:42:38.240Z,19.65
2023-04-28T08:45:06.138Z,19.61
2023-04-28T08:47:36.680Z,19.68
2023-04-28T08:50:06.025Z,19.14
2023-04-28T08:52:34.481Z,19.44
2023-04-28T08:55:07.131Z,19.77
2023-04-28T08:57:44.812Z,19.07
2023-04-28T09:00:12.912Z,19.33
2023-04-28T09:02:42.658Z,19.29
2023-04-28T09:05:14.678Z,19.65
2023-04-28T09:07:47.891Z,19.65
2023-04-28T09:10:22.454Z,20.54
2023-04-28T09:12:54.579Z,20.66
2023-04-28T09:15:37.735Z,20.08
2023-04-28T09:18:06.966Z,19.61
2023-04-28T09:20:36.203Z,19.61
2023-04-28T09:23:20.981Z,19.97
2023-04-28T09:26:01.686Z,20.39
2023-04-28T09:28:29.681Z,19.89
2023-04-28T09:30:57.398Z,19.95
2023-04-28T09:33:25.287Z,20.12
2023-04-28T09:35:53.465Z,20.25
2023-04-28T09:38:24.063Z,20.48
2023-04-28T09:41:01.561Z,20.51
2023-04-28T09:43:34.073Z,21.14
2023-04-28T09:46:03.337Z,21.28
2023-04-28T09:48:33.105Z,21.40
2023-04-28T09:51:02.692Z,21.41
2023-04-28T09:53:30.940Z,21.92
2023-04-28T09:56:01.466Z,21.97
2023-04-28T09:58:30.651Z,21.62
2023-04-28T10:00:59.762Z,22.17
2023-04-28T10:03:30.064Z,22.60
2023-04-28T10:05:59.069Z,21.95
2023-04-28T10:08:27.991Z,22.41
2023-04-28T10:10:56.967Z,22.64
2023-04-28T10:13:24.824Z,22.89
2023-04-28T10:15:55.528Z,22.42
2023-04-28T10:18:24.389Z,22.12
2023-04-28T10:21:03.842Z,22.27
2023-04-28T10:23:54.512Z,22.79
2023-04-28T10:26:27.520Z,22.75
2023-04-28T10:28:55.158Z,22.59
2023-04-28T10:31:23.223Z,22.01
2023-04-28T10:33:50.835Z,22.41
2023-04-28T10:36:59.395Z,22.09
2023-04-28T10:39:27.047Z,22.70
2023-04-28T10:41:54.476Z,22.75
2023-04-28T10:44:31.092Z,22.06
2023-04-28T10:47:13.972Z,22.44
2023-04-28T10:49:57.654Z,21.59
2023-04-28T10:52:48.672Z,22.02
2023-04-28T10:55:37.101Z,22.35
2023-04-28T10:58:27.456Z,22.66
2023-04-28T11:00:54.960Z,22.50
2023-04-28T11:03:52.330Z,22.38
2023-04-28T11:06:28.265Z,22.52
2023-04-28T11:08:57.897Z,22.30
2023-04-28T11:11:27.164Z,22.63
2023-04-28T11:14:15.765Z,22.96
2023-04-28T11:16:50.611Z,22.49
2023-04-28T11:19:23.382Z,22.45
2023-04-28T11:21:52.364Z,22.58
2023-04-28T11:24:20.015Z,23.21
2023-04-28T11:26:47.559Z,23.07
2023-04-28T11:29:15.672Z,23.11
2023-04-28T11:31:51.413Z,23.19
2023-04-28T11:34:21.752Z,23.30
2023-04-28T11:36:49.136Z,23.33
2023-04-28T11:39:16.652Z,23.13
2023-04-28T11:41:45.132Z,23.14
2023-04-28T11:44:16.377Z,23.21
2023-04-28T11:46:56.195Z,23.57
2023-04-28T11:49:24.683Z,23.38
2023-04-28T11:51:52.569Z,23.41
2023-04-28T11:54:24.594Z,23.41
2023-04-28T11:56:53.103Z,23.66
2023-04-28T11:59:31.790Z,24.01
2023-04-28T12:02:03.479Z,23.93
2023-04-28T12:04:32.237Z,23.68
2023-04-28T12:07:07.223Z,23.61
2023-04-28T12:09:35.526Z,23.88
2023-04-28T12:12:08.578Z,23.51
2023-04-28T12:14:54.080Z,23.82
2023-04-28T12:17:29.876Z,23.39
2023-04-28T12:19:59.016Z,23.39
2023-04-28T12:22:27.309Z,23.14
2023-04-28T12:25:12.680Z,23.07
2023-04-28T12:27:41.198Z,23.27
2023-04-28T12:30:20.828Z,23.65
2023-04-28T12:32:48.561Z,23.57
2023-04-28T12:35:16.194Z,23.52
2023-04-28T12:37:44.481Z,23.39
2023-04-28T12:40:12.449Z,23.37
2023-04-28T12:42:39.878Z,23.64
2023-04-28T12:45:08.863Z,23.33
2023-04-28T12:47:37.866Z,22.57
2023-04-28T12:50:06.833Z,22.53
2023-04-28T12:52:35.662Z,21.77
2023-04-28T12:55:04.095Z,22.04
2023-04-28T12:57:39.060Z,22.10
2023-04-28T13:00:08.347Z,22.10
2023-04-28T13:02:36.077Z,22.28
2023-04-28T13:05:03.823Z,22.90
2023-04-28T13:07:31.777Z,23.48
2023-04-28T13:09:59.513Z,23.85
2023-04-28T13:12:26.906Z,23.85
2023-04-28T13:14:54.295Z,23.52
2023-04-28T13:17:21.706Z,24.04
2023-04-28T13:19:49.216Z,23.86
2023-04-28T13:22:16.799Z,24.15
2023-04-28T13:24:44.345Z,24.18
2023-04-28T13:27:11.948Z,23.84
2023-04-28T13:29:39.890Z,23.66
2023-04-28T13:32:07.595Z,23.41
2023-04-28T13:34:35.172Z,23.46
2023-04-28T13:37:02.552Z,23.95
2023-04-28T13:39:29.914Z,23.96
2023-04-28T13:41:57.308Z,23.76
2023-04-28T13:44:24.844Z,23.07
2023-04-28T13:46:53.459Z,23.46
2023-04-28T13:49:23.715Z,23.70
2023-04-28T13:51:51.084Z,23.51
2023-04-28T13:54:18.449Z,23.79
2023-04-28T13:56:46.199Z,23.70
2023-04-28T13:59:13.665Z,23.56
2023-04-28T14:01:41.047Z,23.26
2023-04-28T14:04:08.654Z,23.23
2023-04-28T14:06:37.377Z,23.50
2023-04-28T14:09:04.900Z,23.55
2023-04-28T14:11:32.234Z,22.98
2023-04-28T14:13:59.696Z,22.75
2023-04-28T14:16:27.591Z,22.83
2023-04-28T14:18:55.649Z,22.98
2023-04-28T14:21:23.157Z,23.22
2023-04-28T14:23:50.552Z,23.22
2023-04-28T14:26:18.719Z,22.91
2023-04-28T14:28:46.138Z,23.06
2023-04-28T14:31:13.568Z,23.32
2023-04-28T14:33:41.330Z,23.23
2023-04-28T14:36:09.238Z,23.10
2023-04-28T14:38:38.259Z,22.84
2023-04-28T14:41:06.912Z,22.85
2023-04-28T14:43:35.040Z,22.68
2023-04-28T14:46:02.669Z,22.75
2023-04-28T14:48:32.370Z,22.91
2023-04-28T14:50:59.761Z,23.23
2023-04-28T14:53:27.397Z,22.92
2023-04-28T14:55:59.439Z,22.94
2023-04-28T14:58:35.303Z,23.37
2023-04-28T15:01:03.367Z,22.98
2023-04-28T15:03:30.902Z,22.48
2023-04-28T15:06:02.756Z,22.73
2023-04-28T15:08:30.254Z,22.94
2023-04-28T15:10:57.628Z,22.99
2023-04-28T15:13:27.860Z,22.82
2023-04-28T15:15:55.247Z,22.90
2023-04-28T15:18:22.683Z,22.89
2023-04-28T15:20:51.396Z,22.71
2023-04-28T15:23:19.833Z,22.55
2023-04-28T15:25:48.025Z,22.39
2023-04-28T15:28:15.577Z,22.49
2023-04-28T15:30:43.414Z,22.56
2023-04-28T15:33:17.328Z,22.36
2023-04-28T15:35:44.957Z,22.36
2023-04-28T15:38:12.933Z,22.39
2023-04-28T15:40:40.753Z,22.44
2023-04-28T15:43:08.344Z,22.21
2023-04-28T15:45:36.466Z,21.98
2023-04-28T15:48:06.242Z,22.21
2023-04-28T15:50:34.005Z,22.07
2023-04-28T15:53:01.473Z,21.94
2023-04-28T15:55:28.847Z,21.96
2023-04-28T15:57:56.340Z,21.89
2023-04-28T16:00:23.656Z,21.92
2023-04-28T16:02:53.552Z,21.86
2023-04-28T16:05:22.761Z,21.96
2023-04-28T16:07:50.362Z,22.17
2023-04-28T16:10:17.888Z,22.08
2023-04-28T16:12:45.348Z,22.04
2023-04-28T16:15:13.622Z,21.75
2023-04-28T16:17:41.946Z,21.84
2023-04-28T16:20:10.904Z,21.94
2023-04-28T16:22:39.792Z,21.69
2023-04-28T16:25:07.931Z,21.77
2023-04-28T16:27:36.291Z,21.59
2023-04-28T16:30:07.221Z,21.62
2023-04-28T16:32:38.910Z,21.64
2023-04-28T16:35:11.786Z,21.59
2023-04-28T16:37:43.595Z,21.54
2023-04-28T16:40:12.288Z,21.37
2023-04-28T16:42:39.710Z,21.48
2023-04-28T16:45:07.514Z,21.32
2023-04-28T16:47:34.859Z,21.18
2023-04-28T16:50:02.287Z,21.05
2023-04-28T16:52:29.862Z,21.10
2023-04-28T16:54:57.233Z,20.90
2023-04-28T16:57:25.466Z,20.94
2023-04-28T16:59:53.224Z,20.85
2023-04-28T17:02:20.703Z,20.71
2023-04-28T17:04:48.125Z,20.81
2023-04-28T17:07:18.457Z,20.66
2023-04-28T17:09:45.766Z,20.72
2023-04-28T17:12:13.268Z,20.58
2023-04-28T17:14:40.885Z,20.64
2023-04-28T17:17:08.313Z,20.56
2023-04-28T17:19:35.780Z,20.60
2023-04-28T17:22:03.183Z,20.63
2023-04-28T17:24:30.830Z,20.46
2023-04-28T17:26:58.225Z,20.43
2023-04-28T17:29:26.115Z,20.42
2023-04-28T17:31:53.776Z,20.28
2023-04-28T17:34:21.310Z,20.35
2023-04-28T17:36:48.762Z,20.26
2023-04-28T17:39:16.745Z,20.23
2023-04-28T17:41:45.152Z,20.03
2023-04-28T17:44:12.829Z,19.97
2023-04-28T17:46:40.663Z,20.02
2023-04-28T17:49:08.686Z,19.93
2023-04-28T17:51:38.018Z,19.85
2023-04-28T17:54:09.290Z,19.80
2023-04-28T17:56:38.432Z,19.67
2023-04-28T17:59:07.364Z,19.71
2023-04-28T18:01:35.287Z,19.82
2023-04-28T18:04:02.642Z,19.78
2023-04-28T18:06:30.110Z,19.74
2023-04-28T18:08:57.523Z,19.72
2023-04-28T18:11:27.133Z,19.70
2023-04-28T18:13:54.572Z,19.54
2023-04-28T18:16:22.080Z,19.53
2023-04-28T18:18:49.444Z,19.44
2023-04-28T18:21:17.004Z,19.42
2023-04-28T18:23:44.771Z,19.38
2023-04-28T18:26:12.076Z,19.25
2023-04-28T18:28:39.418Z,19.22
2023-04-28T18:31:07.104Z,19.05
2023-04-28T18:33:35.506Z,19.01
2023-04-28T18:36:07.758Z,18.83
2023-04-28T18:38:36.541Z,19.05
2023-04-28T18:41:15.030Z,19.34
2023-04-28T18:43:43.475Z,19.17
2023-04-28T18:46:10.941Z,19.08
2023-04-28T18:48:38.517Z,19.07
2023-04-28T18:51:06.425Z,19.00
2023-04-28T18:53:33.749Z,18.85
2023-04-28T18:56:03.282Z,18.80
2023-04-28T18:58:31.159Z,18.62
2023-04-28T19:00:58.533Z,18.50
2023-04-28T19:03:26.314Z,18.45
2023-04-28T19:05:54.215Z,18.38
2023-04-28T19:08:21.492Z,18.47
2023-04-28T19:10:49.210Z,18.30
2023-04-28T19:13:16.619Z,18.21
2023-04-28T19:15:43.979Z,18.04
2023-04-28T19:18:12.535Z,18.02
2023-04-28T19:20:42.118Z,17.86
2023-04-28T19:23:09.715Z,17.86
2023-04-28T19:25:37.731Z,17.75
2023-04-28T19:28:05.146Z,17.76
2023-04-28T19:30:32.538Z,17.61
2023-04-28T19:32:59.918Z,17.63
2023-04-28T19:35:27.418Z,17.60
2023-04-28T19:37:55.880Z,17.56
2023-04-28T19:40:23.475Z,17.50
2023-04-28T19:42:51.572Z,17.42
2023-04-28T19:45:19.176Z,17.47
2023-04-28T19:47:46.536Z,17.42
2023-04-28T19:50:13.951Z,17.36
2023-04-28T19:52:41.778Z,17.34
2023-04-28T19:55:09.578Z,17.24
2023-04-28T19:57:37.287Z,17.23
2023-04-28T20:00:05.203Z,17.18
2023-04-28T20:02:35.676Z,17.09
2023-04-28T20:05:03.914Z,17.09
2023-04-28T20:07:31.595Z,16.90
2023-04-28T20:09:59.683Z,16.81
2023-04-28T20:12:26.982Z,16.85
2023-04-28T20:14:54.479Z,16.89
2023-04-28T20:17:21.989Z,16.91
2023-04-28T20:19:49.719Z,16.92
2023-04-28T20:22:17.206Z,16.85
2023-04-28T20:24:44.614Z,16.81
2023-04-28T20:27:12.773Z,16.65
2023-04-28T20:29:40.199Z,16.67
2023-04-28T20:32:07.628Z,16.58
2023-04-28T20:34:36.366Z,16.59
2023-04-28T20:37:04.311Z,16.69
2023-04-28T20:39:31.694Z,16.63
2023-04-28T20:42:01.084Z,16.54
2023-04-28T20:44:28.428Z,16.44
2023-04-28T20:46:55.865Z,16.34
2023-04-28T20:49:24.520Z,16.30
2023-04-28T20:51:52.023Z,16.21
2023-04-28T20:54:19.480Z,16.09
2023-04-28T20:56:46.855Z,16.02
2023-04-28T20:59:14.636Z,15.99
2023-04-28T21:01:42.177Z,15.93
2023-04-28T21:04:09.999Z,15.91
2023-04-28T21:06:37.447Z,15.71
2023-04-28T21:09:04.788Z,15.74
2023-04-28T21:11:32.279Z,15.79
2023-04-28T21:13:59.883Z,15.84
2023-04-28T21:16:27.310Z,15.76
2023-04-28T21:18:58.205Z,15.74
2023-04-28T21:21:25.720Z,15.69
2023-04-28T21:23:53.327Z,15.69
2023-04-28T21:26:21.921Z,15.59
2023-04-28T21:28:50.361Z,15.54
2023-04-28T21:31:18.254Z,15.45
2023-04-28T21:33:45.670Z,15.46
2023-04-28T21:36:13.507Z,15.37
2023-04-28T21:38:40.854Z,15.40
2023-04-28T21:41:08.797Z,15.42
2023-04-28T21:43:36.111Z,15.38
2023-04-28T21:46:03.635Z,15.33
2023-04-28T21:48:30.999Z,15.39
2023-04-28T21:50:59.455Z,15.46
2023-04-28T21:53:26.820Z,15.34
2023-04-28T21:55:54.202Z,15.19
2023-04-28T21:58:21.542Z,15.22
2023-04-28T22:00:49.265Z,15.19
2023-04-28T22:03:16.844Z,15.24
2023-04-28T22:05:45.075Z,15.36
2023-04-28T22:08:13.564Z,15.18
2023-04-28T22:10:41.322Z,15.26
2023-04-28T22:13:09.188Z,15.16
2023-04-28T22:15:36.714Z,15.04
2023-04-28T22:18:04.788Z,15.09
2023-04-28T22:20:32.532Z,15.14
2023-04-28T22:23:00.316Z,15.03
2023-04-28T22:25:27.694Z,15.11
2023-04-28T22:27:55.088Z,15.09
2023-04-28T22:30:25.026Z,15.10
2023-04-28T22:32:53.593Z,15.24
2023-04-28T22:35:21.100Z,15.28
2023-04-28T22:37:48.700Z,15.40
2023-04-28T22:40:16.096Z,15.38
2023-04-28T22:42:43.599Z,15.37
2023-04-28T22:45:11.889Z,15.28
2023-04-28T22:47:43.551Z,15.17
2023-04-28T22:50:11.664Z,15.08
2023-04-28T22:52:39.124Z,14.92
2023-04-28T22:55:06.832Z,14.87
2023-04-28T22:57:34.559Z,14.98
2023-04-28T23:00:05.957Z,15.06
2023-04-28T23:02:33.863Z,15.02
2023-04-28T23:05:01.420Z,15.12
2023-04-28T23:07:28.881Z,15.21
2023-04-28T23:09:56.203Z,15.31
2023-04-28T23:12:23.510Z,15.31
2023-04-28T23:14:50.868Z,15.25
2023-04-28T23:17:18.258Z,15.23
2023-04-28T23:19:45.826Z,15.32
2023-04-28T23:22:13.381Z,15.32
2023-04-28T23:24:40.870Z,15.34
2023-04-28T23:27:08.393Z,15.28
2023-04-28T23:29:36.173Z,15.19
2023-04-28T23:32:04.447Z,15.08
2023-04-28T23:34:31.914Z,14.95
2023-04-28T23:36:59.373Z,15.07
2023-04-28T23:39:29.817Z,15.05
2023-04-28T23:41:57.123Z,15.03
2023-04-28T23:44:24.471Z,15.00
2023-04-28T23:46:51.830Z,15.06
2023-04-28T23:49:20.798Z,15.05
2023-04-28T23:51:48.116Z,15.11
2023-04-28T23:54:15.458Z,15.05
2023-04-28T23:56:42.777Z,14.87
2023-04-28T23:59:10.193Z,14.72
